createdAt,value
2023-02-22T00:01:07.836Z,2.50
2023-02-22T00:02:32.431Z,3.80
2023-02-22T00:03:55.869Z,3.22
2023-02-22T00:05:21.056Z,2.80
2023-02-22T00:06:46.897Z,3.00
2023-02-22T00:08:09.926Z,2.58
2023-02-22T00:09:35.786Z,3.53
2023-02-22T00:10:59.448Z,2.70
2023-02-22T00:12:22.824Z,3.55
2023-02-22T00:13:46.226Z,2.45
2023-02-22T00:15:10.765Z,3.63
2023-02-22T00:16:34.185Z,2.97
2023-02-22T00:17:57.124Z,2.45
2023-02-22T00:19:20.558Z,3.03
2023-02-22T00:20:44.092Z,2.65
2023-02-22T00:22:08.804Z,2.70
2023-02-22T00:23:32.414Z,3.22
2023-02-22T00:24:55.805Z,3.05
2023-02-22T00:26:21.166Z,2.72
2023-02-22T00:27:43.648Z,2.72
2023-02-22T00:29:08.914Z,2.67
2023-02-22T00:30:31.964Z,1.77
2023-02-22T00:31:55.506Z,2.50
2023-02-22T00:33:19.648Z,3.17
2023-02-22T00:34:43.630Z,2.28
2023-02-22T00:36:07.652Z,2.47
2023-02-22T00:37:32.659Z,3.05
2023-02-22T00:38:56.039Z,2.75
2023-02-22T00:40:20.027Z,2.97
2023-02-22T00:41:43.577Z,3.33
2023-02-22T00:43:06.636Z,2.95
2023-02-22T00:44:30.005Z,2.67
2023-02-22T00:45:54.009Z,2.70
2023-02-22T00:47:17.432Z,2.80
2023-02-22T00:48:40.867Z,2.15
2023-02-22T00:50:03.321Z,2.65
2023-02-22T00:51:28.748Z,2.60
2023-02-22T00:52:52.907Z,2.85
2023-02-22T00:54:18.467Z,2.78
2023-02-22T00:55:40.901Z,2.83
2023-02-22T00:57:05.062Z,4.07
2023-02-22T00:58:27.503Z,2.40
2023-02-22T00:59:50.979Z,2.75
2023-02-22T01:01:14.934Z,3.00
2023-02-22T01:02:37.660Z,3.30
2023-02-22T01:04:01.077Z,2.53
2023-02-22T01:05:25.440Z,3.53
2023-02-22T01:06:49.002Z,2.80
2023-02-22T01:08:15.480Z,3.10
2023-02-22T01:09:39.621Z,3.33
2023-02-22T01:11:03.071Z,2.60
2023-02-22T01:12:25.446Z,2.60
2023-02-22T01:13:48.854Z,2.88
2023-02-22T01:15:12.001Z,2.35
2023-02-22T01:16:37.037Z,2.72
2023-02-22T01:18:00.852Z,2.60
2023-02-22T01:19:24.866Z,2.30
2023-02-22T01:20:48.275Z,2.28
2023-02-22T01:22:11.689Z,3.42
2023-02-22T01:23:35.465Z,3.60
2023-02-22T01:24:58.834Z,3.35
2023-02-22T01:26:22.322Z,2.80
2023-02-22T01:27:45.855Z,2.95
2023-02-22T01:29:10.008Z,2.70
2023-02-22T01:30:35.529Z,2.78
2023-02-22T01:32:01.668Z,2.70
2023-02-22T01:33:25.808Z,2.72
2023-02-22T01:34:48.241Z,3.80
2023-02-22T01:36:12.207Z,2.65
2023-02-22T01:37:34.884Z,3.08
2023-02-22T01:38:59.656Z,2.72
2023-02-22T01:40:26.772Z,3.35
2023-02-22T01:41:50.156Z,2.72
2023-02-22T01:43:19.688Z,2.70
2023-02-22T01:44:43.143Z,2.63
2023-02-22T01:46:08.184Z,2.58
2023-02-22T01:47:30.624Z,2.75
2023-02-22T01:48:56.461Z,2.45
2023-02-22T01:50:19.663Z,2.05
2023-02-22T01:51:44.981Z,2.40
2023-02-22T01:53:08.626Z,2.72
2023-02-22T01:54:36.152Z,2.78
2023-02-22T01:55:59.047Z,2.55
2023-02-22T01:57:25.317Z,3.05
2023-02-22T01:58:52.057Z,2.28
2023-02-22T02:00:20.200Z,3.17
2023-02-22T02:01:44.863Z,2.28
2023-02-22T02:03:11.572Z,2.40
2023-02-22T02:04:36.288Z,2.60
2023-02-22T02:06:01.796Z,2.35
2023-02-22T02:07:25.828Z,2.20
2023-02-22T02:08:55.224Z,3.03
2023-02-22T02:10:19.280Z,3.80
2023-02-22T02:11:43.581Z,2.63
2023-02-22T02:13:06.700Z,2.15
2023-02-22T02:14:31.970Z,2.80
2023-02-22T02:15:55.153Z,3.28
2023-02-22T02:17:21.193Z,2.92
2023-02-22T02:18:44.741Z,2.95
2023-02-22T02:20:14.747Z,2.67
2023-02-22T02:21:52.161Z,2.67
2023-02-22T02:23:28.813Z,2.63
2023-02-22T02:25:45.287Z,1.60
2023-02-22T02:27:19.498Z,2.55
2023-02-22T02:29:16.391Z,2.55
2023-02-22T02:31:03.335Z,2.45
2023-02-22T02:32:39.846Z,1.90
2023-02-22T02:34:05.317Z,2.60
2023-02-22T02:35:37.577Z,2.22
2023-02-22T02:37:04.734Z,2.45
2023-02-22T02:38:33.035Z,2.53
2023-02-22T02:40:01.454Z,3.22
2023-02-22T02:41:28.178Z,3.20
2023-02-22T02:42:55.808Z,3.50
2023-02-22T02:44:23.904Z,2.92
2023-02-22T02:45:50.939Z,3.10
2023-02-22T02:47:16.449Z,2.40
2023-02-22T02:48:45.177Z,2.75
2023-02-22T02:50:13.357Z,2.90
2023-02-22T02:51:45.784Z,3.05
2023-02-22T02:53:09.776Z,3.03
2023-02-22T02:54:34.354Z,2.97
2023-02-22T02:55:59.319Z,2.58
2023-02-22T02:57:21.907Z,2.85
2023-02-22T02:58:49.053Z,2.58
2023-02-22T03:00:22.530Z,2.88
2023-02-22T03:01:53.303Z,2.83
2023-02-22T03:03:39.017Z,3.00
2023-02-22T03:05:15.554Z,2.28
2023-02-22T03:07:09.875Z,2.47
2023-02-22T03:08:37.972Z,2.63
2023-02-22T03:10:18.928Z,2.70
2023-02-22T03:11:50.808Z,3.20
2023-02-22T03:13:28.126Z,2.92
2023-02-22T03:15:00.290Z,3.50
2023-02-22T03:16:29.832Z,2.40
2023-02-22T03:17:56.707Z,2.83
2023-02-22T03:19:24.129Z,2.70
2023-02-22T03:20:54.523Z,2.75
2023-02-22T03:22:23.712Z,2.47
2023-02-22T03:23:50.574Z,2.38
2023-02-22T03:25:19.195Z,3.13
2023-02-22T03:26:45.210Z,2.97
2023-02-22T03:28:12.919Z,2.83
2023-02-22T03:29:37.007Z,2.60
2023-02-22T03:31:04.597Z,2.75
2023-02-22T03:32:31.473Z,2.80
2023-02-22T03:33:57.722Z,2.90
2023-02-22T03:35:23.038Z,2.90
2023-02-22T03:36:51.475Z,2.85
2023-02-22T03:38:16.897Z,2.70
2023-02-22T03:39:40.365Z,3.03
2023-02-22T03:41:03.804Z,2.35
2023-02-22T03:42:30.295Z,2.22
2023-02-22T03:43:58.520Z,3.40
2023-02-22T03:45:23.307Z,3.17
2023-02-22T03:46:48.306Z,2.88
2023-02-22T03:48:16.997Z,3.38
2023-02-22T03:49:44.106Z,3.42
2023-02-22T03:51:06.736Z,2.80
2023-02-22T03:52:31.641Z,2.65
2023-02-22T03:53:56.242Z,2.20
2023-02-22T03:55:18.880Z,2.45
2023-02-22T03:56:47.202Z,2.63
2023-02-22T03:58:13.016Z,2.67
2023-02-22T03:59:36.443Z,3.15
2023-02-22T04:00:58.893Z,2.58
2023-02-22T04:02:23.745Z,3.08
2023-02-22T04:03:46.360Z,2.45
2023-02-22T04:05:10.149Z,3.08
2023-02-22T04:06:38.966Z,3.42
2023-02-22T04:08:03.702Z,2.42
2023-02-22T04:09:26.354Z,3.30
2023-02-22T04:10:49.811Z,3.05
2023-02-22T04:12:12.220Z,2.85
2023-02-22T04:13:35.597Z,3.05
2023-02-22T04:14:57.971Z,3.50
2023-02-22T04:16:21.574Z,3.30
2023-02-22T04:17:44.961Z,2.25
2023-02-22T04:19:08.325Z,2.60
2023-02-22T04:20:31.689Z,2.92
2023-02-22T04:21:56.568Z,2.60
2023-02-22T04:23:26.934Z,2.78
2023-02-22T04:24:49.431Z,2.80
2023-02-22T04:26:12.809Z,2.47
2023-02-22T04:27:35.252Z,3.08
2023-02-22T04:28:58.617Z,2.28
2023-02-22T04:30:22.507Z,2.85
2023-02-22T04:31:45.989Z,2.95
2023-02-22T04:33:08.434Z,2.92
2023-02-22T04:34:32.182Z,2.38
2023-02-22T04:35:54.571Z,2.65
2023-02-22T04:37:18.050Z,2.90
2023-02-22T04:38:45.597Z,3.35
2023-02-22T04:40:11.483Z,3.47
2023-02-22T04:41:35.326Z,2.38
2023-02-22T04:42:57.719Z,3.33
2023-02-22T04:44:21.261Z,3.03
2023-02-22T04:45:43.693Z,2.70
2023-02-22T04:47:07.057Z,2.85
2023-02-22T04:48:29.457Z,3.33
2023-02-22T04:49:53.252Z,3.10
2023-02-22T04:51:16.922Z,3.15
2023-02-22T04:52:39.610Z,2.90
2023-02-22T04:54:04.546Z,3.53
2023-02-22T04:55:28.055Z,2.72
2023-02-22T04:56:52.123Z,3.17
2023-02-22T04:58:14.529Z,3.00
2023-02-22T04:59:37.895Z,2.65
2023-02-22T05:01:01.538Z,3.20
2023-02-22T05:02:24.966Z,3.15
2023-02-22T05:03:48.340Z,2.35
2023-02-22T05:05:14.152Z,3.08
2023-02-22T05:06:36.594Z,3.15
2023-02-22T05:07:59.994Z,2.17
2023-02-22T05:09:24.707Z,2.40
2023-02-22T05:10:48.790Z,3.25
2023-02-22T05:12:11.423Z,3.10
2023-02-22T05:13:34.824Z,3.00
2023-02-22T05:14:58.241Z,3.88
2023-02-22T05:16:20.686Z,2.30
2023-02-22T05:17:44.143Z,2.78
2023-02-22T05:19:07.494Z,2.80
2023-02-22T05:20:32.485Z,2.67
2023-02-22T05:21:56.389Z,2.58
2023-02-22T05:23:20.629Z,2.95
2023-02-22T05:24:45.400Z,3.22
2023-02-22T05:26:11.630Z,3.58
2023-02-22T05:27:35.158Z,2.80
2023-02-22T05:28:57.609Z,3.17
2023-02-22T05:30:24.237Z,3.30
2023-02-22T05:31:46.717Z,3.25
2023-02-22T05:33:10.648Z,3.28
2023-02-22T05:34:33.278Z,3.47
2023-02-22T05:35:56.985Z,3.03
2023-02-22T05:37:20.345Z,2.67
2023-02-22T05:38:44.753Z,2.63
2023-02-22T05:40:10.585Z,3.25
2023-02-22T05:41:33.959Z,3.05
2023-02-22T05:42:57.742Z,2.72
2023-02-22T05:44:21.130Z,3.13
2023-02-22T05:45:45.944Z,2.38
2023-02-22T05:47:09.314Z,3.67
2023-02-22T05:48:31.732Z,2.65
2023-02-22T05:49:55.144Z,3.03
2023-02-22T05:51:21.152Z,2.70
2023-02-22T05:52:43.557Z,3.17
2023-02-22T05:54:06.957Z,2.85
2023-02-22T05:55:30.687Z,3.03
2023-02-22T05:56:54.886Z,3.05
2023-02-22T05:58:18.356Z,3.28
2023-02-22T05:59:40.792Z,3.40
2023-02-22T06:01:04.807Z,3.10
2023-02-22T06:02:28.349Z,2.97
2023-02-22T06:03:52.691Z,3.53
2023-02-22T06:05:15.098Z,2.90
2023-02-22T06:06:38.573Z,2.25
2023-02-22T06:08:02.186Z,3.05
2023-02-22T06:09:25.562Z,2.95
2023-02-22T06:10:50.332Z,3.60
2023-02-22T06:12:13.740Z,2.90
2023-02-22T06:13:37.250Z,3.08
2023-02-22T06:14:59.652Z,4.25
2023-02-22T06:16:23.685Z,3.47
2023-02-22T06:17:47.169Z,3.55
2023-02-22T06:19:10.749Z,3.55
2023-02-22T06:20:35.014Z,2.88
2023-02-22T06:22:00.421Z,3.75
2023-02-22T06:23:23.847Z,3.40
2023-02-22T06:24:48.382Z,4.70
2023-02-22T06:26:13.229Z,3.60
2023-02-22T06:27:37.316Z,3.30
2023-02-22T06:29:00.686Z,3.70
2023-02-22T06:30:25.754Z,3.92
2023-02-22T06:31:49.251Z,3.47
2023-02-22T06:33:13.185Z,3.50
2023-02-22T06:34:36.574Z,3.38
2023-02-22T06:35:59.986Z,3.53
2023-02-22T06:37:23.347Z,3.33
2023-02-22T06:38:46.708Z,3.33
2023-02-22T06:40:11.191Z,3.75
2023-02-22T06:41:38.734Z,3.60
2023-02-22T06:43:02.155Z,4.10
2023-02-22T06:44:25.504Z,4.00
2023-02-22T06:45:49.160Z,4.85
2023-02-22T06:47:12.662Z,3.35
2023-02-22T06:48:38.098Z,3.80
2023-02-22T06:50:01.866Z,3.55
2023-02-22T06:51:25.375Z,4.60
2023-02-22T06:52:51.626Z,3.78
2023-02-22T06:54:15.223Z,3.25
2023-02-22T06:55:38.592Z,3.78
2023-02-22T06:57:03.629Z,4.13
2023-02-22T06:58:27.947Z,4.15
2023-02-22T06:59:50.343Z,4.20
2023-02-22T07:01:14.154Z,4.13
2023-02-22T07:02:38.422Z,3.72
2023-02-22T07:04:01.936Z,4.07
2023-02-22T07:05:26.585Z,4.20
2023-02-22T07:06:50.661Z,3.80
2023-02-22T07:08:14.087Z,3.65
2023-02-22T07:09:37.510Z,3.05
2023-02-22T07:11:00.930Z,3.97
2023-02-22T07:12:26.084Z,3.67
2023-02-22T07:13:49.657Z,3.33
2023-02-22T07:15:12.090Z,3.78
2023-02-22T07:16:35.597Z,4.15
2023-02-22T07:17:59.457Z,4.63
2023-02-22T07:19:22.831Z,3.30
2023-02-22T07:20:47.439Z,3.38
2023-02-22T07:22:10.797Z,3.15
2023-02-22T07:23:34.167Z,3.70
2023-02-22T07:24:57.564Z,3.40
2023-02-22T07:26:22.569Z,3.00
2023-02-22T07:27:47.424Z,4.22
2023-02-22T07:29:11.522Z,3.53
2023-02-22T07:30:35.458Z,3.75
2023-02-22T07:31:58.971Z,4.03
2023-02-22T07:33:22.449Z,3.97
2023-02-22T07:34:45.850Z,4.15
2023-02-22T07:36:09.746Z,3.83
2023-02-22T07:37:33.154Z,4.10
2023-02-22T07:38:56.529Z,3.80
2023-02-22T07:40:19.898Z,4.03
2023-02-22T07:41:43.267Z,3.53
2023-02-22T07:43:15.963Z,3.42
2023-02-22T07:44:39.319Z,3.50
2023-02-22T07:46:03.275Z,3.75
2023-02-22T07:47:26.685Z,3.95
2023-02-22T07:48:50.136Z,3.30
2023-02-22T07:50:14.418Z,3.97
2023-02-22T07:51:37.992Z,3.80
2023-02-22T07:53:05.675Z,4.30
2023-02-22T07:54:29.081Z,4.93
2023-02-22T07:55:52.813Z,3.13
2023-02-22T07:57:17.323Z,3.13
2023-02-22T07:58:42.232Z,4.60
2023-02-22T08:00:09.537Z,4.20
2023-02-22T08:01:32.971Z,5.03
2023-02-22T08:02:56.927Z,5.32
2023-02-22T08:04:20.366Z,4.63
2023-02-22T08:05:47.054Z,5.72
2023-02-22T08:07:10.435Z,4.53
2023-02-22T08:08:34.420Z,5.35
2023-02-22T08:09:57.842Z,4.90
2023-02-22T08:11:21.419Z,5.43
2023-02-22T08:12:44.847Z,5.40
2023-02-22T08:14:09.658Z,5.55
2023-02-22T08:15:35.325Z,5.57
2023-02-22T08:16:58.772Z,5.35
2023-02-22T08:18:23.164Z,7.00
2023-02-22T08:19:45.586Z,5.47
2023-02-22T08:21:09.164Z,5.65
2023-02-22T08:22:33.139Z,6.18
2023-02-22T08:23:56.510Z,5.90
2023-02-22T08:25:21.319Z,5.63
2023-02-22T08:26:46.616Z,5.30
2023-02-22T08:28:13.479Z,5.68
2023-02-22T08:29:38.320Z,5.85
2023-02-22T08:31:01.753Z,5.45
2023-02-22T08:32:25.710Z,4.30
2023-02-22T08:33:50.231Z,5.07
2023-02-22T08:35:14.713Z,5.05
2023-02-22T08:36:39.911Z,4.68
2023-02-22T08:38:04.670Z,4.65
2023-02-22T08:39:28.057Z,4.75
2023-02-22T08:40:51.688Z,4.88
2023-02-22T08:42:15.089Z,4.53
2023-02-22T08:43:38.446Z,3.72
2023-02-22T08:45:03.312Z,4.55
2023-02-22T08:46:26.718Z,4.65
2023-02-22T08:47:50.316Z,4.45
2023-02-22T08:49:13.671Z,4.25
2023-02-22T08:50:38.152Z,4.38
2023-02-22T08:52:01.665Z,3.97
2023-02-22T08:53:25.062Z,4.20
2023-02-22T08:54:48.471Z,4.00
2023-02-22T08:56:11.880Z,3.95
2023-02-22T08:57:35.225Z,3.85
2023-02-22T08:58:58.626Z,3.90
2023-02-22T09:00:25.247Z,4.55
2023-02-22T09:01:48.769Z,3.80
2023-02-22T09:03:14.156Z,4.10
2023-02-22T09:04:37.518Z,4.00
2023-02-22T09:06:00.894Z,3.80
2023-02-22T09:07:27.049Z,4.15
2023-02-22T09:08:50.474Z,4.43
2023-02-22T09:10:15.982Z,4.18
2023-02-22T09:11:39.377Z,4.43
2023-02-22T09:13:03.978Z,4.20
2023-02-22T09:14:27.400Z,3.58
2023-02-22T09:15:52.487Z,4.30
2023-02-22T09:17:15.885Z,5.07
2023-02-22T09:18:44.338Z,4.45
2023-02-22T09:20:10.160Z,3.78
2023-02-22T09:21:33.580Z,3.92
2023-02-22T09:22:57.036Z,4.45
2023-02-22T09:24:20.693Z,4.88
2023-02-22T09:25:44.097Z,4.60
2023-02-22T09:27:09.761Z,4.25
2023-02-22T09:28:33.118Z,3.58
2023-02-22T09:29:59.842Z,3.65
2023-02-22T09:31:25.264Z,4.30
2023-02-22T09:32:48.930Z,4.00
2023-02-22T09:34:13.790Z,4.10
2023-02-22T09:35:37.371Z,4.32
2023-02-22T09:37:00.780Z,4.20
2023-02-22T09:38:26.101Z,3.58
2023-02-22T09:39:51.195Z,3.78
2023-02-22T09:41:19.646Z,3.67
2023-02-22T09:42:47.978Z,4.05
2023-02-22T09:44:19.687Z,3.20
2023-02-22T09:45:58.533Z,3.70
2023-02-22T09:47:32.438Z,3.85
2023-02-22T09:49:03.348Z,3.95
2023-02-22T09:50:29.703Z,2.83
2023-02-22T09:51:57.030Z,3.65
2023-02-22T09:53:29.822Z,3.05
2023-02-22T09:54:57.704Z,3.78
2023-02-22T09:56:22.438Z,3.35
2023-02-22T09:57:46.231Z,3.38
2023-02-22T09:59:12.330Z,2.55
2023-02-22T10:00:38.567Z,2.75
2023-02-22T10:02:07.045Z,2.72
2023-02-22T10:03:36.444Z,3.20
2023-02-22T10:05:05.881Z,4.00
2023-02-22T10:06:29.984Z,2.45
2023-02-22T10:07:56.530Z,3.45
2023-02-22T10:09:20.046Z,2.88
2023-02-22T10:10:46.350Z,3.35
2023-02-22T10:12:12.746Z,2.85
2023-02-22T10:13:44.687Z,3.20
2023-02-22T10:15:41.180Z,2.53
2023-02-22T10:17:11.231Z,2.45
2023-02-22T10:18:47.914Z,2.50
2023-02-22T10:20:22.326Z,2.83
2023-02-22T10:22:00.781Z,3.15
2023-02-22T10:23:30.478Z,2.83
2023-02-22T10:25:00.547Z,2.67
2023-02-22T10:26:28.220Z,2.78
2023-02-22T10:27:57.832Z,3.60
2023-02-22T10:29:29.088Z,3.10
2023-02-22T10:30:56.091Z,3.22
2023-02-22T10:32:23.232Z,2.80
2023-02-22T10:33:49.646Z,2.97
2023-02-22T10:35:24.017Z,3.17
2023-02-22T10:36:49.321Z,3.17
2023-02-22T10:38:20.123Z,2.65
2023-02-22T10:39:43.894Z,2.53
2023-02-22T10:41:25.298Z,2.63
2023-02-22T10:42:48.702Z,3.05
2023-02-22T10:44:12.311Z,3.00
2023-02-22T10:45:37.105Z,3.00
2023-02-22T10:47:02.000Z,3.85
2023-02-22T10:48:26.927Z,2.58
2023-02-22T10:49:55.623Z,3.40
2023-02-22T10:51:19.353Z,2.97
2023-02-22T10:52:42.825Z,3.17
2023-02-22T10:54:24.066Z,2.78
2023-02-22T10:56:06.889Z,2.80
2023-02-22T10:57:33.004Z,2.08
2023-02-22T10:58:59.478Z,2.20
2023-02-22T11:00:31.202Z,2.22
2023-02-22T11:01:54.632Z,2.35
2023-02-22T11:03:19.911Z,2.58
2023-02-22T11:04:49.612Z,3.28
2023-02-22T11:06:21.934Z,2.70
2023-02-22T11:07:45.922Z,2.03
2023-02-22T11:09:12.412Z,1.92
2023-02-22T11:10:38.811Z,2.78
2023-02-22T11:12:12.630Z,2.55
2023-02-22T11:13:39.621Z,2.97
2023-02-22T11:15:28.856Z,3.38
2023-02-22T11:16:54.046Z,3.38
2023-02-22T11:18:26.727Z,2.72
2023-02-22T11:19:51.151Z,2.80
2023-02-22T11:21:18.387Z,3.15
2023-02-22T11:22:45.561Z,3.13
2023-02-22T11:24:11.061Z,2.67
2023-02-22T11:25:36.129Z,2.75
2023-02-22T11:27:02.612Z,2.08
2023-02-22T11:28:33.796Z,1.98
2023-02-22T11:29:59.649Z,2.28
2023-02-22T11:31:27.032Z,1.83
2023-02-22T11:32:54.635Z,3.20
2023-02-22T11:34:32.882Z,2.10
2023-02-22T11:35:58.282Z,2.33
2023-02-22T11:37:31.624Z,2.65
2023-02-22T11:39:00.033Z,2.47
2023-02-22T11:40:25.287Z,2.50
2023-02-22T11:41:49.266Z,1.73
2023-02-22T11:43:17.471Z,2.40
2023-02-22T11:44:44.580Z,2.70
2023-02-22T11:46:14.085Z,2.80
2023-02-22T11:47:37.853Z,2.95
2023-02-22T11:49:04.555Z,2.40
2023-02-22T11:50:33.173Z,2.65
2023-02-22T11:52:10.808Z,2.88
2023-02-22T11:53:45.289Z,2.15
2023-02-22T11:55:29.734Z,2.10
2023-02-22T11:57:07.169Z,2.35
2023-02-22T11:58:40.730Z,2.63
2023-02-22T12:00:16.718Z,2.63
2023-02-22T12:01:46.440Z,2.45
2023-02-22T12:03:35.991Z,2.42
2023-02-22T12:05:13.625Z,2.00
2023-02-22T12:06:43.090Z,2.30
2023-02-22T12:08:19.855Z,2.42
2023-02-22T12:09:46.007Z,2.38
2023-02-22T12:11:18.522Z,2.55
2023-02-22T12:12:52.452Z,2.60
2023-02-22T12:14:25.251Z,2.38
2023-02-22T12:15:53.040Z,2.10
2023-02-22T12:17:39.022Z,2.65
2023-02-22T12:19:20.268Z,2.03
2023-02-22T12:20:47.597Z,2.58
2023-02-22T12:22:16.695Z,1.40
2023-02-22T12:23:45.830Z,1.85
2023-02-22T12:25:19.530Z,2.05
2023-02-22T12:26:47.435Z,1.95
2023-02-22T12:28:24.207Z,2.38
2023-02-22T12:29:55.092Z,2.60
2023-02-22T12:31:23.485Z,2.60
2023-02-22T12:32:49.163Z,2.03
2023-02-22T12:34:17.933Z,1.65
2023-02-22T12:35:47.783Z,1.67
2023-02-22T12:37:17.253Z,1.70
2023-02-22T12:38:44.279Z,2.17
2023-02-22T12:40:13.376Z,2.83
2023-02-22T12:41:44.947Z,1.92
2023-02-22T12:43:16.608Z,2.83
2023-02-22T12:44:42.322Z,2.08
2023-02-22T12:46:08.072Z,1.73
2023-02-22T12:47:36.776Z,2.72
2023-02-22T12:49:04.443Z,1.80
2023-02-22T12:50:34.338Z,1.45
2023-02-22T12:52:03.075Z,2.00
2023-02-22T12:53:32.089Z,2.15
2023-02-22T12:55:00.201Z,2.10
2023-02-22T12:56:27.316Z,2.15
2023-02-22T12:57:57.416Z,1.92
2023-02-22T12:59:24.526Z,2.45
2023-02-22T13:00:51.926Z,2.78
2023-02-22T13:02:20.125Z,2.88
2023-02-22T13:03:44.835Z,2.53
2023-02-22T13:05:15.006Z,2.22
2023-02-22T13:06:44.430Z,1.67
2023-02-22T13:08:18.574Z,1.85
2023-02-22T13:10:02.980Z,2.40
2023-02-22T13:11:32.949Z,2.28
2023-02-22T13:13:03.873Z,1.88
2023-02-22T13:14:46.461Z,2.25
2023-02-22T13:16:23.322Z,2.58
2023-02-22T13:17:52.364Z,2.03
2023-02-22T13:19:29.444Z,1.42
2023-02-22T13:20:59.263Z,1.70
2023-02-22T13:22:26.557Z,2.50
2023-02-22T13:24:03.450Z,2.90
2023-02-22T13:25:31.271Z,2.05
2023-02-22T13:26:57.681Z,1.70
2023-02-22T13:28:29.450Z,2.22
2023-02-22T13:29:55.895Z,1.58
2023-02-22T13:31:47.464Z,3.13
2023-02-22T13:33:43.504Z,1.35
2023-02-22T13:35:23.108Z,2.00
2023-02-22T13:37:00.947Z,1.75
2023-02-22T13:38:47.571Z,2.50
2023-02-22T13:40:58.253Z,1.80
2023-02-22T13:42:49.777Z,1.65
2023-02-22T13:44:33.999Z,1.45
2023-02-22T13:46:24.283Z,1.38
2023-02-22T13:48:03.620Z,2.33
2023-02-22T13:49:37.519Z,2.35
2023-02-22T13:51:17.000Z,2.33
2023-02-22T13:52:42.162Z,1.90
2023-02-22T13:54:09.131Z,2.35
2023-02-22T13:55:34.987Z,2.08
2023-02-22T13:56:58.818Z,2.13
2023-02-22T13:58:22.360Z,1.58
2023-02-22T13:59:47.377Z,1.38
2023-02-22T14:01:41.465Z,1.67
2023-02-22T14:03:08.887Z,2.10
2023-02-22T14:04:41.784Z,2.35
2023-02-22T14:06:06.313Z,2.00
2023-02-22T14:07:48.794Z,2.08
2023-02-22T14:09:19.044Z,2.15
2023-02-22T14:10:51.037Z,3.03
2023-02-22T14:12:50.659Z,2.38
2023-02-22T14:14:17.164Z,2.20
2023-02-22T14:16:19.028Z,1.98
2023-02-22T14:17:43.213Z,2.45
2023-02-22T14:19:14.310Z,1.83
2023-02-22T14:20:40.191Z,2.30
2023-02-22T14:22:05.880Z,1.70
2023-02-22T14:23:37.437Z,1.73
2023-02-22T14:25:00.940Z,1.88
2023-02-22T14:26:28.352Z,1.55
2023-02-22T14:27:54.780Z,2.10
2023-02-22T14:29:19.692Z,2.08
2023-02-22T14:30:43.173Z,2.22
2023-02-22T14:32:10.678Z,2.15
2023-02-22T14:34:00.392Z,2.22
2023-02-22T14:35:28.705Z,2.17
2023-02-22T14:36:56.724Z,2.20
2023-02-22T14:38:21.403Z,2.25
2023-02-22T14:39:46.653Z,2.08
2023-02-22T14:41:09.178Z,2.38
2023-02-22T14:42:35.448Z,3.10
2023-02-22T14:44:00.526Z,1.60
2023-02-22T14:45:30.066Z,2.42
2023-02-22T14:47:01.695Z,2.13
2023-02-22T14:48:39.152Z,1.50
2023-02-22T14:50:07.986Z,2.17
2023-02-22T14:51:36.888Z,2.22
2023-02-22T14:53:04.326Z,1.50
2023-02-22T14:54:30.952Z,2.33
2023-02-22T14:55:57.581Z,2.20
2023-02-22T14:57:24.701Z,2.08
2023-02-22T14:58:50.947Z,2.45
2023-02-22T15:00:22.550Z,1.92
2023-02-22T15:02:01.661Z,1.85
2023-02-22T15:03:38.181Z,2.10
2023-02-22T15:05:05.076Z,1.48
2023-02-22T15:06:31.385Z,1.75
2023-02-22T15:07:56.744Z,1.83
2023-02-22T15:09:27.684Z,2.85
2023-02-22T15:10:54.364Z,2.58
2023-02-22T15:12:24.941Z,1.98
2023-02-22T15:13:51.982Z,2.45
2023-02-22T15:15:21.968Z,2.30
2023-02-22T15:16:49.084Z,2.17
2023-02-22T15:18:27.029Z,2.20
2023-02-22T15:19:52.364Z,2.80
2023-02-22T15:21:18.388Z,2.33
2023-02-22T15:22:42.038Z,2.90
2023-02-22T15:24:07.893Z,2.00
2023-02-22T15:25:32.512Z,2.08
2023-02-22T15:27:02.218Z,2.50
2023-02-22T15:28:30.912Z,1.83
2023-02-22T15:30:04.443Z,1.88
2023-02-22T15:31:31.605Z,2.17
2023-02-22T15:33:04.190Z,2.38
2023-02-22T15:34:30.806Z,1.95
2023-02-22T15:35:57.944Z,1.75
2023-02-22T15:37:25.266Z,1.98
2023-02-22T15:38:55.686Z,1.77
2023-02-22T15:40:21.816Z,2.30
2023-02-22T15:41:45.201Z,1.05
2023-02-22T15:43:16.303Z,1.77
2023-02-22T15:44:41.786Z,2.00
2023-02-22T15:46:06.689Z,2.53
2023-02-22T15:47:31.953Z,1.88
2023-02-22T15:49:23.229Z,1.85
2023-02-22T15:51:07.683Z,2.17
2023-02-22T15:52:31.850Z,2.53
2023-02-22T15:53:55.462Z,2.35
2023-02-22T15:55:19.480Z,2.30
2023-02-22T15:56:51.471Z,1.83
2023-02-22T15:58:23.792Z,2.72
2023-02-22T15:59:52.869Z,2.58
2023-02-22T16:01:19.240Z,2.38
2023-02-22T16:02:44.062Z,1.48
2023-02-22T16:04:07.805Z,2.00
2023-02-22T16:05:38.370Z,2.03
2023-02-22T16:07:16.844Z,1.88
2023-02-22T16:08:54.455Z,1.83
2023-02-22T16:10:24.798Z,1.55
2023-02-22T16:11:48.620Z,2.33
2023-02-22T16:13:31.597Z,2.15
2023-02-22T16:14:56.339Z,2.42
2023-02-22T16:16:30.736Z,2.15
2023-02-22T16:18:01.999Z,1.58
2023-02-22T16:19:33.128Z,2.22
2023-02-22T16:21:04.345Z,1.67
2023-02-22T16:22:33.813Z,2.25
2023-02-22T16:24:10.268Z,2.97
2023-02-22T16:25:39.493Z,1.83
2023-02-22T16:27:20.016Z,2.28
2023-02-22T16:28:51.845Z,2.15
2023-02-22T16:30:28.240Z,2.15
2023-02-22T16:31:51.762Z,1.77
2023-02-22T16:33:18.134Z,2.20
2023-02-22T16:34:41.538Z,1.95
2023-02-22T16:36:07.932Z,2.47
2023-02-22T16:37:32.892Z,1.80
2023-02-22T16:38:56.299Z,2.33
2023-02-22T16:40:23.715Z,2.28
2023-02-22T16:41:47.213Z,2.13
2023-02-22T16:43:13.479Z,2.10
2023-02-22T16:44:37.046Z,2.35
2023-02-22T16:46:01.525Z,1.75
2023-02-22T16:47:24.968Z,2.67
2023-02-22T16:48:48.360Z,2.80
2023-02-22T16:50:12.252Z,1.95
2023-02-22T16:51:42.131Z,2.28
2023-02-22T16:53:07.002Z,1.50
2023-02-22T16:54:34.234Z,1.95
2023-02-22T16:56:02.199Z,2.65
2023-02-22T16:57:26.476Z,2.15
2023-02-22T16:58:51.043Z,1.88
2023-02-22T17:00:17.204Z,1.92
2023-02-22T17:01:40.743Z,2.00
2023-02-22T17:03:05.616Z,2.75
2023-02-22T17:04:29.139Z,2.95
2023-02-22T17:05:52.902Z,2.72
2023-02-22T17:07:17.388Z,1.92
2023-02-22T17:08:42.637Z,1.90
2023-02-22T17:10:06.428Z,2.38
2023-02-22T17:11:29.825Z,2.05
2023-02-22T17:12:54.007Z,2.67
2023-02-22T17:14:18.474Z,2.28
2023-02-22T17:15:41.875Z,2.88
2023-02-22T17:17:04.302Z,3.10
2023-02-22T17:18:33.864Z,2.60
2023-02-22T17:19:57.426Z,2.55
2023-02-22T17:21:20.845Z,2.88
2023-02-22T17:22:45.591Z,2.30
2023-02-22T17:24:12.741Z,2.70
2023-02-22T17:25:39.639Z,2.05
2023-02-22T17:27:03.804Z,2.35
2023-02-22T17:28:27.757Z,2.58
2023-02-22T17:29:51.318Z,3.10
2023-02-22T17:31:21.782Z,2.22
2023-02-22T17:32:45.385Z,2.38
2023-02-22T17:34:08.931Z,2.45
2023-02-22T17:35:36.322Z,1.90
2023-02-22T17:37:00.239Z,3.55
2023-02-22T17:38:23.716Z,3.38
2023-02-22T17:39:48.449Z,2.42
2023-02-22T17:41:12.487Z,2.78
2023-02-22T17:42:35.946Z,2.55
2023-02-22T17:43:59.325Z,3.20
2023-02-22T17:45:23.598Z,3.08
2023-02-22T17:46:47.840Z,4.05
2023-02-22T17:48:11.794Z,3.00
2023-02-22T17:49:35.199Z,3.17
2023-02-22T17:50:58.814Z,2.78
2023-02-22T17:52:22.227Z,3.15
2023-02-22T17:53:45.704Z,2.70
2023-02-22T17:55:11.315Z,2.88
2023-02-22T17:56:34.759Z,2.03
2023-02-22T17:57:59.233Z,2.50
2023-02-22T17:59:22.593Z,3.38
2023-02-22T18:00:47.653Z,2.30
2023-02-22T18:02:11.239Z,1.85
2023-02-22T18:03:40.253Z,0.88
2023-02-22T18:05:04.092Z,2.83
2023-02-22T18:06:29.992Z,1.48
2023-02-22T18:07:53.488Z,2.38
2023-02-22T18:09:18.003Z,2.63
2023-02-22T18:10:43.774Z,2.97
2023-02-22T18:12:06.375Z,1.92
2023-02-22T18:13:29.804Z,2.78
2023-02-22T18:14:55.036Z,2.80
2023-02-22T18:16:18.731Z,2.60
2023-02-22T18:17:42.252Z,2.10
2023-02-22T18:19:05.912Z,2.60
2023-02-22T18:20:37.999Z,2.72
2023-02-22T18:22:02.943Z,2.13
2023-02-22T18:23:27.846Z,2.88
2023-02-22T18:24:57.692Z,3.00
2023-02-22T18:26:25.968Z,2.20
2023-02-22T18:27:48.553Z,1.70
2023-02-22T18:29:12.346Z,1.73
2023-02-22T18:30:35.754Z,2.70
2023-02-22T18:31:59.479Z,2.70
2023-02-22T18:33:22.859Z,2.50
2023-02-22T18:34:46.465Z,2.45
2023-02-22T18:36:11.397Z,3.05
2023-02-22T18:37:34.987Z,2.20
2023-02-22T18:38:58.970Z,2.70
2023-02-22T18:40:21.378Z,2.90
2023-02-22T18:41:48.527Z,2.47
2023-02-22T18:43:11.000Z,2.38
2023-02-22T18:44:34.500Z,2.20
2023-02-22T18:46:06.923Z,2.40
2023-02-22T18:47:30.350Z,2.53
2023-02-22T18:48:57.128Z,2.88
2023-02-22T18:50:20.682Z,2.08
2023-02-22T18:51:45.931Z,2.33
2023-02-22T18:53:09.340Z,2.40
2023-02-22T18:54:32.773Z,2.58
2023-02-22T18:55:56.248Z,2.85
2023-02-22T18:57:22.057Z,2.47
2023-02-22T18:58:45.646Z,2.72
2023-02-22T19:00:10.579Z,2.33
2023-02-22T19:01:38.515Z,2.83
2023-02-22T19:03:02.540Z,2.65
2023-02-22T19:04:26.093Z,2.90
2023-02-22T19:05:52.161Z,2.90
2023-02-22T19:07:18.287Z,3.05
2023-02-22T19:08:42.890Z,3.13
2023-02-22T19:10:07.056Z,3.00
2023-02-22T19:11:30.516Z,2.65
2023-02-22T19:12:55.264Z,2.50
2023-02-22T19:14:19.440Z,2.70
2023-02-22T19:15:43.206Z,2.75
2023-02-22T19:17:07.439Z,2.92
2023-02-22T19:18:31.583Z,2.67